createdAt,value
2018-12-09T00:03:52.365Z,9.15
2018-12-09T00:13:52.440Z,9.22
2018-12-09T00:23:52.467Z,9.26
2018-12-09T00:33:52.481Z,9.16
2018-12-09T00:43:52.418Z,9.15
2018-12-09T00:53:52.387Z,9.13
2018-12-09T01:03:52.452Z,9.13
2018-12-09T01:13:52.457Z,9.07
2018-12-09T01:23:52.470Z,9.10
2018-12-09T01:33:52.452Z,9.00
2018-12-09T01:43:52.478Z,8.88
2018-12-09T01:53:52.286Z,8.86
2018-12-09T02:03:52.498Z,8.81
2018-12-09T02:13:52.397Z,8.82
2018-12-09T02:23:52.469Z,8.77
2018-12-09T02:33:52.528Z,8.76
2018-12-09T02:43:52.372Z,8.75
2018-12-09T02:53:52.387Z,7.75
2018-12-09T03:03:52.412Z,7.64
2018-12-09T03:13:52.409Z,7.84
2018-12-09T03:23:52.351Z,8.09
2018-12-09T03:33:52.477Z,8.27
2018-12-09T03:43:52.991Z,8.21
2018-12-09T03:53:52.419Z,8.28
2018-12-09T04:03:52.506Z,8.33
2018-12-09T04:13:52.412Z,8.33
2018-12-09T04:23:53.209Z,8.43
2018-12-09T04:33:52.357Z,8.48
2018-12-09T04:43:52.406Z,8.52
2018-12-09T04:53:52.439Z,8.60
2018-12-09T05:03:52.381Z,8.55
2018-12-09T05:13:52.373Z,8.31
2018-12-09T05:23:52.443Z,8.34
2018-12-09T05:33:52.338Z,8.44
2018-12-09T05:43:52.370Z,8.48
2018-12-09T05:53:52.336Z,8.51
2018-12-09T06:03:52.394Z,8.47
2018-12-09T06:13:52.407Z,8.43
2018-12-09T06:23:52.346Z,8.40
2018-12-09T06:33:52.473Z,8.40
2018-12-09T06:43:52.405Z,8.39
2018-12-09T06:53:52.418Z,8.38
2018-12-09T07:03:52.349Z,8.35
2018-12-09T07:13:52.348Z,8.32
2018-12-09T07:23:52.316Z,8.35
2018-12-09T07:33:52.324Z,8.26
2018-12-09T07:43:52.479Z,7.96
2018-12-09T07:53:52.316Z,8.13
2018-12-09T08:03:52.465Z,8.31
2018-12-09T08:13:52.292Z,8.25
2018-12-09T08:23:52.352Z,8.06
2018-12-09T08:33:52.386Z,7.73
2018-12-09T08:43:52.326Z,7.54
2018-12-09T08:53:52.338Z,7.37
2018-12-09T09:03:52.369Z,7.34
2018-12-09T09:13:52.298Z,7.42
2018-12-09T09:23:52.380Z,7.56
2018-12-09T09:33:52.339Z,7.67
2018-12-09T09:43:52.301Z,7.53
2018-12-09T09:53:52.298Z,7.16
2018-12-09T10:03:52.330Z,7.25
2018-12-09T10:13:52.444Z,7.39
2018-12-09T10:23:52.363Z,7.66
2018-12-09T10:33:52.359Z,5.10
2018-12-09T10:43:53.297Z,3.72
2018-12-09T10:53:52.296Z,3.91
2018-12-09T11:03:54.406Z,4.49
2018-12-09T11:13:57.966Z,4.75
2018-12-09T11:23:52.377Z,5.13
2018-12-09T11:33:53.594Z,5.42
2018-12-09T11:43:52.288Z,5.53
2018-12-09T11:53:52.310Z,5.73
2018-12-09T12:03:52.313Z,5.91
2018-12-09T12:13:54.216Z,6.36
2018-12-09T12:23:52.301Z,6.43
2018-12-09T12:33:52.336Z,6.57
2018-12-09T12:43:52.326Z,6.81
2018-12-09T12:53:52.288Z,7.07
2018-12-09T13:03:52.374Z,7.21
2018-12-09T13:13:52.356Z,7.16
2018-12-09T13:23:52.433Z,7.17
2018-12-09T13:33:52.346Z,7.23
2018-12-09T13:43:52.355Z,7.34
2018-12-09T13:53:52.323Z,7.30
2018-12-09T14:03:52.332Z,7.35
2018-12-09T14:13:52.263Z,7.34
2018-12-09T14:23:52.264Z,7.34
2018-12-09T14:33:52.276Z,7.34
2018-12-09T14:43:52.301Z,7.31
2018-12-09T14:53:52.298Z,7.23
2018-12-09T15:03:52.434Z,7.12
2018-12-09T15:13:52.358Z,6.93
2018-12-09T15:23:52.447Z,6.73
2018-12-09T15:33:52.328Z,6.57
2018-12-09T15:43:52.264Z,6.72
2018-12-09T15:53:52.308Z,6.74
2018-12-09T16:03:52.300Z,6.85
2018-12-09T16:13:52.287Z,6.89
2018-12-09T16:23:52.302Z,6.87
2018-12-09T16:33:52.247Z,6.76
2018-12-09T16:43:52.286Z,6.67
2018-12-09T16:53:52.309Z,6.04
2018-12-09T17:03:52.298Z,5.91
2018-12-09T17:13:52.289Z,5.83
2018-12-09T17:23:52.325Z,5.84
2018-12-09T17:33:52.255Z,6.05
2018-12-09T17:43:52.283Z,6.33
2018-12-09T17:53:52.343Z,6.35
2018-12-09T18:03:52.322Z,6.33
2018-12-09T18:13:52.306Z,6.30
2018-12-09T18:23:52.676Z,6.31
2018-12-09T18:33:52.460Z,6.31
2018-12-09T18:43:52.297Z,6.32
2018-12-09T18:53:53.471Z,6.37
2018-12-09T19:03:52.291Z,6.35
2018-12-09T19:13:52.251Z,6.23
2018-12-09T19:23:52.253Z,6.15
2018-12-09T19:33:52.243Z,6.14
2018-12-09T19:43:52.206Z,6.09
2018-12-09T19:53:52.276Z,5.97
2018-12-09T20:03:52.322Z,5.92
2018-12-09T20:13:52.235Z,5.93
2018-12-09T20:23:52.232Z,6.00
2018-12-09T20:33:52.264Z,5.95
2018-12-09T20:43:52.192Z,5.87
2018-12-09T20:53:52.269Z,5.78
2018-12-09T21:03:52.230Z,5.69
2018-12-09T21:13:52.216Z,5.69
2018-12-09T21:23:52.313Z,5.74
2018-12-09T21:33:52.240Z,5.79
2018-12-09T21:43:52.246Z,5.85
2018-12-09T21:53:52.241Z,5.79
2018-12-09T22:03:52.215Z,5.74
2018-12-09T22:13:52.139Z,5.65
2018-12-09T22:23:52.243Z,5.60
2018-12-09T22:33:52.266Z,5.60
2018-12-09T22:43:53.062Z,5.62
2018-12-09T22:53:52.227Z,5.66
2018-12-09T23:03:52.106Z,5.54
2018-12-09T23:13:52.343Z,5.42
2018-12-09T23:23:52.248Z,5.37
2018-12-09T23:33:55.646Z,5.26
2018-12-09T23:43:52.202Z,5.13
2018-12-09T23:53:52.221Z,5.08
